sensor_id;sensor_type;location;lat;lon;timestamp;pressure;altitude;pressure_sealevel;temperature;humidity
20983;BME280;10650;51.528;6.748;2022-08-19T00:01:38;101085.97;;;21.41;70.39
20983;BME280;10650;51.528;6.748;2022-08-19T00:04:09;101082.38;;;21.41;70.51
20983;BME280;10650;51.528;6.748;2022-08-19T00:06:39;101087.97;;;21.38;70.74
20983;BME280;10650;51.528;6.748;2022-08-19T00:09:10;101093.66;;;21.32;70.60
20983;BME280;10650;51.528;6.748;2022-08-19T00:11:38;101091.09;;;21.29;70.91
20983;BME280;10650;51.528;6.748;2022-08-19T00:14:08;101091.25;;;21.25;71.03
20983;BME280;10650;51.528;6.748;2022-08-19T00:16:40;101097.78;;;21.21;71.28
20983;BME280;10650;51.528;6.748;2022-08-19T00:19:08;101101.44;;;21.20;71.33
20983;BME280;10650;51.528;6.748;2022-08-19T00:21:36;101100.72;;;21.17;71.30
20983;BME280;10650;51.528;6.748;2022-08-19T00:24:06;101105.63;;;21.08;71.65
20983;BME280;10650;51.528;6.748;2022-08-19T00:26:35;101109.44;;;21.04;71.94
20983;BME280;10650;51.528;6.748;2022-08-19T00:29:06;101098.59;;;21.04;72.12
20983;BME280;10650;51.528;6.748;2022-08-19T00:31:34;101090.50;;;21.03;72.12
20983;BME280;10650;51.528;6.748;2022-08-19T00:34:03;101093.31;;;21.01;72.08
20983;BME280;10650;51.528;6.748;2022-08-19T00:36:31;101087.88;;;21.01;72.09
20983;BME280;10650;51.528;6.748;2022-08-19T00:38:59;101093.38;;;21.00;72.00
20983;BME280;10650;51.528;6.748;2022-08-19T00:41:27;101088.03;;;20.98;72.21
20983;BME280;10650;51.528;6.748;2022-08-19T00:44:02;101084.50;;;20.96;71.97
20983;BME280;10650;51.528;6.748;2022-08-19T00:46:30;101088.25;;;20.94;72.16
20983;BME280;10650;51.528;6.748;2022-08-19T00:48:59;101080.19;;;20.92;72.17
20983;BME280;10650;51.528;6.748;2022-08-19T00:51:30;101079.50;;;20.87;72.41
20983;BME280;10650;51.528;6.748;2022-08-19T00:54:00;101089.09;;;20.75;73.03
20983;BME280;10650;51.528;6.748;2022-08-19T00:56:30;101086.72;;;20.67;73.16
20983;BME280;10650;51.528;6.748;2022-08-19T00:58:58;101091.38;;;20.64;73.30
20983;BME280;10650;51.528;6.748;2022-08-19T01:01:26;101089.63;;;20.63;73.45
20983;BME280;10650;51.528;6.748;2022-08-19T01:03:54;101085.09;;;20.63;73.40
20983;BME280;10650;51.528;6.748;2022-08-19T01:06:25;101085.09;;;20.63;73.46
20983;BME280;10650;51.528;6.748;2022-08-19T01:08:54;101083.25;;;20.64;73.45
20983;BME280;10650;51.528;6.748;2022-08-19T01:11:22;101079.84;;;20.58;73.75
20983;BME280;10650;51.528;6.748;2022-08-19T01:13:52;101077.28;;;20.55;73.82
20983;BME280;10650;51.528;6.748;2022-08-19T01:16:23;101079.19;;;20.53;73.68
20983;BME280;10650;51.528;6.748;2022-08-19T01:18:52;101072.78;;;20.54;73.73
20983;BME280;10650;51.528;6.748;2022-08-19T01:21:24;101082.72;;;20.55;73.69
20983;BME280;10650;51.528;6.748;2022-08-19T01:23:56;101087.25;;;20.55;73.80
20983;BME280;10650;51.528;6.748;2022-08-19T01:26:25;101094.00;;;20.46;74.10
20983;BME280;10650;51.528;6.748;2022-08-19T01:28:54;101088.72;;;20.43;74.11
20983;BME280;10650;51.528;6.748;2022-08-19T01:31:28;101087.72;;;20.44;74.11
20983;BME280;10650;51.528;6.748;2022-08-19T01:34:00;101088.72;;;20.43;74.18
20983;BME280;10650;51.528;6.748;2022-08-19T01:36:30;101091.47;;;20.42;74.03
20983;BME280;10650;51.528;6.748;2022-08-19T01:39:03;101088.03;;;20.38;74.06
20983;BME280;10650;51.528;6.748;2022-08-19T01:41:31;101083.88;;;20.29;74.57
20983;BME280;10650;51.528;6.748;2022-08-19T01:43:59;101077.03;;;20.20;74.89
20983;BME280;10650;51.528;6.748;2022-08-19T01:46:45;101079.91;;;20.17;74.95
20983;BME280;10650;51.528;6.748;2022-08-19T01:49:15;101083.53;;;20.16;74.87
20983;BME280;10650;51.528;6.748;2022-08-19T01:51:43;101089.78;;;20.18;74.88
20983;BME280;10650;51.528;6.748;2022-08-19T01:54:14;101087.88;;;20.20;74.89
20983;BME280;10650;51.528;6.748;2022-08-19T01:56:58;101095.13;;;20.20;75.16
20983;BME280;10650;51.528;6.748;2022-08-19T01:59:27;101080.97;;;20.13;75.42
20983;BME280;10650;51.528;6.748;2022-08-19T02:01:55;101091.34;;;20.03;75.80
20983;BME280;10650;51.528;6.748;2022-08-19T02:04:23;101090.75;;;19.95;76.04
20983;BME280;10650;51.528;6.748;2022-08-19T02:06:51;101096.25;;;19.94;76.02
20983;BME280;10650;51.528;6.748;2022-08-19T02:09:21;101093.47;;;19.95;76.27
20983;BME280;10650;51.528;6.748;2022-08-19T02:11:48;101088.06;;;19.95;76.35
20983;BME280;10650;51.528;6.748;2022-08-19T02:14:16;101086.34;;;19.93;76.35
20983;BME280;10650;51.528;6.748;2022-08-19T02:16:44;101083.63;;;19.93;76.30
20983;BME280;10650;51.528;6.748;2022-08-19T02:19:12;101079.06;;;19.95;76.33
20983;BME280;10650;51.528;6.748;2022-08-19T02:21:40;101071.78;;;19.95;76.18
20983;BME280;10650;51.528;6.748;2022-08-19T02:24:08;101079.91;;;19.95;76.11
20983;BME280;10650;51.528;6.748;2022-08-19T02:26:37;101078.28;;;19.91;76.27
20983;BME280;10650;51.528;6.748;2022-08-19T02:29:05;101086.41;;;19.91;76.44
20983;BME280;10650;51.528;6.748;2022-08-19T02:31:33;101091.78;;;19.93;76.55
20983;BME280;10650;51.528;6.748;2022-08-19T02:34:01;101094.63;;;19.90;76.33
20983;BME280;10650;51.528;6.748;2022-08-19T02:36:28;101101.81;;;19.91;76.29
20983;BME280;10650;51.528;6.748;2022-08-19T02:38:56;101103.69;;;19.88;76.42
20983;BME280;10650;51.528;6.748;2022-08-19T02:41:26;101107.31;;;19.89;76.36
20983;BME280;10650;51.528;6.748;2022-08-19T02:43:58;101104.66;;;19.87;76.49
20983;BME280;10650;51.528;6.748;2022-08-19T02:46:48;101104.03;;;19.81;76.65
20983;BME280;10650;51.528;6.748;2022-08-19T02:49:21;101093.47;;;19.73;77.13
20983;BME280;10650;51.528;6.748;2022-08-19T02:51:49;101098.34;;;19.65;77.45
20983;BME280;10650;51.528;6.748;2022-08-19T02:54:17;101100.34;;;19.60;77.63
20983;BME280;10650;51.528;6.748;2022-08-19T02:56:45;101097.63;;;19.60;77.58
20983;BME280;10650;51.528;6.748;2022-08-19T02:59:15;101095.69;;;19.63;77.30
20983;BME280;10650;51.528;6.748;2022-08-19T03:01:45;101101.16;;;19.62;77.39
20983;BME280;10650;51.528;6.748;2022-08-19T03:04:14;101099.59;;;19.56;77.65
20983;BME280;10650;51.528;6.748;2022-08-19T03:06:45;101109.53;;;19.56;77.66
20983;BME280;10650;51.528;6.748;2022-08-19T03:09:14;101106.75;;;19.57;77.78
20983;BME280;10650;51.528;6.748;2022-08-19T03:11:42;101097.75;;;19.57;77.74
20983;BME280;10650;51.528;6.748;2022-08-19T03:14:15;101104.94;;;19.58;77.87
20983;BME280;10650;51.528;6.748;2022-08-19T03:16:49;101104.25;;;19.52;78.10
20983;BME280;10650;51.528;6.748;2022-08-19T03:19:20;101100.72;;;19.50;77.92
20983;BME280;10650;51.528;6.748;2022-08-19T03:21:49;101098.22;;;19.46;78.18
20983;BME280;10650;51.528;6.748;2022-08-19T03:24:18;101106.41;;;19.44;78.44
20983;BME280;10650;51.528;6.748;2022-08-19T03:26:50;101095.66;;;19.41;78.51
20983;BME280;10650;51.528;6.748;2022-08-19T03:29:20;101094.59;;;19.45;78.33
20983;BME280;10650;51.528;6.748;2022-08-19T03:31:56;101098.16;;;19.47;78.30
20983;BME280;10650;51.528;6.748;2022-08-19T03:34:27;101097.31;;;19.45;78.20
20983;BME280;10650;51.528;6.748;2022-08-19T03:36:58;101096.44;;;19.45;78.30
20983;BME280;10650;51.528;6.748;2022-08-19T03:39:28;101097.31;;;19.45;78.53
20983;BME280;10650;51.528;6.748;2022-08-19T03:41:56;101099.16;;;19.45;78.64
20983;BME280;10650;51.528;6.748;2022-08-19T03:44:47;101100.00;;;19.45;78.29
20983;BME280;10650;51.528;6.748;2022-08-19T03:47:15;101099.09;;;19.46;78.25
20983;BME280;10650;51.528;6.748;2022-08-19T03:49:44;101098.31;;;19.43;78.62
20983;BME280;10650;51.528;6.748;2022-08-19T03:52:12;101100.41;;;19.36;78.77
20983;BME280;10650;51.528;6.748;2022-08-19T03:54:40;101104.91;;;19.35;78.84
20983;BME280;10650;51.528;6.748;2022-08-19T03:57:08;101101.22;;;19.38;79.03
20983;BME280;10650;51.528;6.748;2022-08-19T03:59:38;101094.00;;;19.37;78.82
20983;BME280;10650;51.528;6.748;2022-08-19T04:02:10;101085.84;;;19.39;78.73
20983;BME280;10650;51.528;6.748;2022-08-19T04:04:39;101094.00;;;19.39;78.86
20983;BME280;10650;51.528;6.748;2022-08-19T04:07:08;101094.22;;;19.32;78.84
20983;BME280;10650;51.528;6.748;2022-08-19T04:09:37;101094.34;;;19.29;78.75
20983;BME280;10650;51.528;6.748;2022-08-19T04:12:05;101100.81;;;19.25;79.17
20983;BME280;10650;51.528;6.748;2022-08-19T04:14:34;101100.75;;;19.27;79.19
20983;BME280;10650;51.528;6.748;2022-08-19T04:17:04;101101.75;;;19.24;79.33
20983;BME280;10650;51.528;6.748;2022-08-19T04:19:38;101103.59;;;19.24;79.34
20983;BME280;10650;51.528;6.748;2022-08-19T04:22:06;101102.72;;;19.23;79.31
20983;BME280;10650;51.528;6.748;2022-08-19T04:24:34;101101.75;;;19.24;79.41
20983;BME280;10650;51.528;6.748;2022-08-19T04:27:04;101097.44;;;19.20;79.44
20983;BME280;10650;51.528;6.748;2022-08-19T04:29:33;101099.28;;;19.18;79.62
20983;BME280;10650;51.528;6.748;2022-08-19T04:32:02;101108.34;;;19.17;79.67
20983;BME280;10650;51.528;6.748;2022-08-19T04:34:37;101102.91;;;19.18;79.64
20983;BME280;10650;51.528;6.748;2022-08-19T04:37:26;101093.00;;;19.17;79.84
20983;BME280;10650;51.528;6.748;2022-08-19T04:40:01;101084.94;;;19.16;79.72
20983;BME280;10650;51.528;6.748;2022-08-19T04:42:47;101096.59;;;19.18;79.86
20983;BME280;10650;51.528;6.748;2022-08-19T04:45:15;101099.47;;;19.13;80.13
20983;BME280;10650;51.528;6.748;2022-08-19T04:47:43;101107.59;;;19.13;80.30
20983;BME280;10650;51.528;6.748;2022-08-19T04:50:25;101113.06;;;19.12;80.45
20983;BME280;10650;51.528;6.748;2022-08-19T04:52:53;101120.34;;;19.11;80.50
20983;BME280;10650;51.528;6.748;2022-08-19T04:55:22;101112.91;;;19.16;80.23
20983;BME280;10650;51.528;6.748;2022-08-19T04:57:52;101119.09;;;19.20;80.09
20983;BME280;10650;51.528;6.748;2022-08-19T05:00:19;101121.59;;;19.25;79.97
20983;BME280;10650;51.528;6.748;2022-08-19T05:02:47;101129.72;;;19.25;79.95
20983;BME280;10650;51.528;6.748;2022-08-19T05:05:15;101131.53;;;19.24;80.08
20983;BME280;10650;51.528;6.748;2022-08-19T05:07:45;101126.19;;;19.23;80.29
20983;BME280;10650;51.528;6.748;2022-08-19T05:10:13;101132.31;;;19.28;80.37
20983;BME280;10650;51.528;6.748;2022-08-19T05:12:41;101139.38;;;19.32;80.14
20983;BME280;10650;51.528;6.748;2022-08-19T05:15:09;101152.69;;;19.38;80.40
20983;BME280;10650;51.528;6.748;2022-08-19T05:17:37;101150.69;;;19.43;80.44
20983;BME280;10650;51.528;6.748;2022-08-19T05:20:25;101154.97;;;19.49;80.09
20983;BME280;10650;51.528;6.748;2022-08-19T05:23:12;101153.84;;;19.54;79.86
20983;BME280;10650;51.528;6.748;2022-08-19T05:25:48;101159.88;;;19.61;79.68
20983;BME280;10650;51.528;6.748;2022-08-19T05:28:16;101155.25;;;19.65;79.45
20983;BME280;10650;51.528;6.748;2022-08-19T05:30:45;101154.13;;;19.70;79.50
20983;BME280;10650;51.528;6.748;2022-08-19T05:33:14;101163.75;;;19.78;79.27
20983;BME280;10650;51.528;6.748;2022-08-19T05:35:42;101149.91;;;19.85;79.14
20983;BME280;10650;51.528;6.748;2022-08-19T05:38:10;101153.06;;;19.97;79.43
20983;BME280;10650;51.528;6.748;2022-08-19T05:40:42;101157.28;;;20.04;80.11
20983;BME280;10650;51.528;6.748;2022-08-19T05:43:15;101146.00;;;20.15;80.52
20983;BME280;10650;51.528;6.748;2022-08-19T05:45:44;101146.53;;;20.23;81.11
20983;BME280;10650;51.528;6.748;2022-08-19T05:48:12;101149.72;;;20.33;81.15
20983;BME280;10650;51.528;6.748;2022-08-19T05:50:41;101148.50;;;20.40;80.80
20983;BME280;10650;51.528;6.748;2022-08-19T05:53:10;101151.84;;;20.47;80.84
20983;BME280;10650;51.528;6.748;2022-08-19T05:55:38;101148.72;;;20.56;80.49
20983;BME280;10650;51.528;6.748;2022-08-19T05:58:08;101149.47;;;20.60;80.60
20983;BME280;10650;51.528;6.748;2022-08-19T06:00:36;101155.69;;;20.62;80.57
20983;BME280;10650;51.528;6.748;2022-08-19T06:03:04;101165.44;;;20.67;80.37
20983;BME280;10650;51.528;6.748;2022-08-19T06:05:39;101158.91;;;20.71;80.47
20983;BME280;10650;51.528;6.748;2022-08-19T06:08:18;101157.84;;;20.76;80.41
20983;BME280;10650;51.528;6.748;2022-08-19T06:11:11;101158.53;;;20.81;80.19
20983;BME280;10650;51.528;6.748;2022-08-19T06:13:48;101152.94;;;20.84;79.69
20983;BME280;10650;51.528;6.748;2022-08-19T06:16:28;101159.00;;;20.90;79.78
20983;BME280;10650;51.528;6.748;2022-08-19T06:19:03;101151.34;;;20.99;79.32
20983;BME280;10650;51.528;6.748;2022-08-19T06:21:34;101148.31;;;21.06;79.08
20983;BME280;10650;51.528;6.748;2022-08-19T06:24:04;101145.22;;;21.14;78.72
20983;BME280;10650;51.528;6.748;2022-08-19T06:26:37;101150.28;;;21.22;78.18
20983;BME280;10650;51.528;6.748;2022-08-19T06:29:08;101155.44;;;21.28;77.86
20983;BME280;10650;51.528;6.748;2022-08-19T06:31:51;101149.78;;;21.33;77.79
20983;BME280;10650;51.528;6.748;2022-08-19T06:34:19;101154.13;;;21.37;77.40
20983;BME280;10650;51.528;6.748;2022-08-19T06:36:49;101156.47;;;21.44;77.31
20983;BME280;10650;51.528;6.748;2022-08-19T06:39:20;101159.94;;;21.48;77.11
20983;BME280;10650;51.528;6.748;2022-08-19T06:41:50;101155.25;;;21.52;77.10
20983;BME280;10650;51.528;6.748;2022-08-19T06:44:27;101148.69;;;21.56;76.85
20983;BME280;10650;51.528;6.748;2022-08-19T06:46:57;101143.03;;;21.60;76.62
20983;BME280;10650;51.528;6.748;2022-08-19T06:49:25;101150.91;;;21.67;76.43
20983;BME280;10650;51.528;6.748;2022-08-19T06:51:58;101146.25;;;21.69;76.46
20983;BME280;10650;51.528;6.748;2022-08-19T06:54:28;101157.66;;;21.77;76.09
20983;BME280;10650;51.528;6.748;2022-08-19T06:56:56;101156.38;;;21.84;75.67
20983;BME280;10650;51.528;6.748;2022-08-19T06:59:26;101156.38;;;21.84;75.53
20983;BME280;10650;51.528;6.748;2022-08-19T07:01:56;101159.81;;;21.88;75.40
20983;BME280;10650;51.528;6.748;2022-08-19T07:04:28;101155.28;;;21.88;75.27
20983;BME280;10650;51.528;6.748;2022-08-19T07:06:58;101155.13;;;21.91;75.08
20983;BME280;10650;51.528;6.748;2022-08-19T07:09:45;101165.25;;;21.88;75.15
20983;BME280;10650;51.528;6.748;2022-08-19T07:12:27;101164.16;;;21.92;74.95
20983;BME280;10650;51.528;6.748;2022-08-19T07:14:57;101162.81;;;22.01;74.86
20983;BME280;10650;51.528;6.748;2022-08-19T07:17:27;101164.34;;;22.06;74.77
20983;BME280;10650;51.528;6.748;2022-08-19T07:19:56;101171.81;;;22.20;74.49
20983;BME280;10650;51.528;6.748;2022-08-19T07:22:47;101169.75;;;22.25;74.12
20983;BME280;10650;51.528;6.748;2022-08-19T07:25:15;101160.75;;;22.23;74.25
20983;BME280;10650;51.528;6.748;2022-08-19T07:27:44;101168.34;;;22.36;73.97
20983;BME280;10650;51.528;6.748;2022-08-19T07:30:21;101174.03;;;22.49;73.56
20983;BME280;10650;51.528;6.748;2022-08-19T07:32:51;101185.41;;;22.57;73.37
20983;BME280;10650;51.528;6.748;2022-08-19T07:35:19;101177.56;;;22.68;72.84
20983;BME280;10650;51.528;6.748;2022-08-19T07:37:47;101184.19;;;22.80;72.48
20983;BME280;10650;51.528;6.748;2022-08-19T07:40:15;101188.34;;;22.87;72.18
20983;BME280;10650;51.528;6.748;2022-08-19T07:42:43;101187.66;;;22.99;71.38
20983;BME280;10650;51.528;6.748;2022-08-19T07:45:11;101191.63;;;23.11;71.34
20983;BME280;10650;51.528;6.748;2022-08-19T07:47:40;101194.41;;;23.10;70.60
20983;BME280;10650;51.528;6.748;2022-08-19T07:50:24;101196.03;;;23.14;70.26
20983;BME280;10650;51.528;6.748;2022-08-19T07:52:52;101192.78;;;23.23;69.61
20983;BME280;10650;51.528;6.748;2022-08-19T07:55:24;101194.72;;;23.21;68.36
20983;BME280;10650;51.528;6.748;2022-08-19T07:58:09;101207.97;;;23.11;68.43
20983;BME280;10650;51.528;6.748;2022-08-19T08:00:38;101199.00;;;23.25;68.20
20983;BME280;10650;51.528;6.748;2022-08-19T08:03:07;101198.78;;;23.30;68.01
20983;BME280;10650;51.528;6.748;2022-08-19T08:05:35;101203.78;;;23.38;68.17
20983;BME280;10650;51.528;6.748;2022-08-19T08:08:21;101201.25;;;23.35;67.33
20983;BME280;10650;51.528;6.748;2022-08-19T08:11:10;101209.78;;;23.28;68.33
20983;BME280;10650;51.528;6.748;2022-08-19T08:13:41;101225.41;;;23.25;67.94
20983;BME280;10650;51.528;6.748;2022-08-19T08:16:09;101219.66;;;23.13;68.11
20983;BME280;10650;51.528;6.748;2022-08-19T08:18:41;101224.69;;;23.21;68.17
20983;BME280;10650;51.528;6.748;2022-08-19T08:21:16;101221.72;;;23.26;67.02
20983;BME280;10650;51.528;6.748;2022-08-19T08:23:44;101219.03;;;23.42;67.30
20983;BME280;10650;51.528;6.748;2022-08-19T08:26:17;101215.09;;;23.63;66.49
20983;BME280;10650;51.528;6.748;2022-08-19T08:28:45;101224.41;;;23.75;65.70
20983;BME280;10650;51.528;6.748;2022-08-19T08:31:15;101223.53;;;23.75;65.49
20983;BME280;10650;51.528;6.748;2022-08-19T08:33:46;101221.38;;;23.97;65.16
20983;BME280;10650;51.528;6.748;2022-08-19T08:36:15;101228.91;;;24.24;65.02
20983;BME280;10650;51.528;6.748;2022-08-19T08:38:44;101230.94;;;24.36;63.59
20983;BME280;10650;51.528;6.748;2022-08-19T08:41:18;101232.69;;;24.38;63.63
20983;BME280;10650;51.528;6.748;2022-08-19T08:43:51;101231.78;;;24.37;63.19
20983;BME280;10650;51.528;6.748;2022-08-19T08:46:24;101229.25;;;24.34;63.54
20983;BME280;10650;51.528;6.748;2022-08-19T08:49:02;101234.53;;;24.37;63.59
20983;BME280;10650;51.528;6.748;2022-08-19T08:51:38;101228.19;;;24.36;63.18
20983;BME280;10650;51.528;6.748;2022-08-19T08:54:12;101228.00;;;24.40;62.85
20983;BME280;10650;51.528;6.748;2022-08-19T08:56:41;101226.84;;;24.44;62.12
20983;BME280;10650;51.528;6.748;2022-08-19T08:59:16;101221.94;;;24.50;61.93
20983;BME280;10650;51.528;6.748;2022-08-19T09:01:46;101223.91;;;24.63;61.84
20983;BME280;10650;51.528;6.748;2022-08-19T09:04:16;101222.41;;;24.73;61.46
20983;BME280;10650;51.528;6.748;2022-08-19T09:06:50;101214.38;;;24.70;60.72
20983;BME280;10650;51.528;6.748;2022-08-19T09:09:23;101214.59;;;24.81;61.00
20983;BME280;10650;51.528;6.748;2022-08-19T09:12:03;101221.19;;;24.93;60.72
20983;BME280;10650;51.528;6.748;2022-08-19T09:14:41;101221.09;;;24.95;59.48
20983;BME280;10650;51.528;6.748;2022-08-19T09:17:20;101213.66;;;24.97;59.69
20983;BME280;10650;51.528;6.748;2022-08-19T09:20:02;101216.81;;;25.05;59.11
20983;BME280;10650;51.528;6.748;2022-08-19T09:22:36;101209.28;;;25.09;57.63
20983;BME280;10650;51.528;6.748;2022-08-19T09:25:06;101212.72;;;25.12;57.59
20983;BME280;10650;51.528;6.748;2022-08-19T09:27:36;101216.53;;;25.24;57.65
20983;BME280;10650;51.528;6.748;2022-08-19T09:30:13;101222.41;;;25.32;57.30
20983;BME280;10650;51.528;6.748;2022-08-19T09:32:42;101216.06;;;25.46;57.06
20983;BME280;10650;51.528;6.748;2022-08-19T09:35:13;101220.44;;;25.49;56.68
20983;BME280;10650;51.528;6.748;2022-08-19T09:37:42;101222.41;;;25.61;56.87
20983;BME280;10650;51.528;6.748;2022-08-19T09:40:11;101221.50;;;25.75;56.69
20983;BME280;10650;51.528;6.748;2022-08-19T09:42:41;101217.69;;;25.78;55.74
20983;BME280;10650;51.528;6.748;2022-08-19T09:45:20;101216.03;;;25.75;55.56
20983;BME280;10650;51.528;6.748;2022-08-19T09:47:49;101219.34;;;25.80;56.09
20983;BME280;10650;51.528;6.748;2022-08-19T09:50:22;101210.75;;;25.86;55.81
20983;BME280;10650;51.528;6.748;2022-08-19T09:52:50;101204.97;;;25.91;55.65
20983;BME280;10650;51.528;6.748;2022-08-19T09:55:24;101215.72;;;25.80;55.35
20983;BME280;10650;51.528;6.748;2022-08-19T09:57:58;101213.47;;;25.86;55.58
20983;BME280;10650;51.528;6.748;2022-08-19T10:00:26;101211.97;;;25.95;55.68
20983;BME280;10650;51.528;6.748;2022-08-19T10:02:54;101223.91;;;25.94;55.46
20983;BME280;10650;51.528;6.748;2022-08-19T10:05:23;101210.13;;;25.96;54.96
20983;BME280;10650;51.528;6.748;2022-08-19T10:08:09;101214.72;;;25.95;55.02
20983;BME280;10650;51.528;6.748;2022-08-19T10:10:39;101210.91;;;25.98;55.17
20983;BME280;10650;51.528;6.748;2022-08-19T10:13:12;101211.59;;;26.01;54.60
20983;BME280;10650;51.528;6.748;2022-08-19T10:15:40;101216.28;;;25.99;54.51
20983;BME280;10650;51.528;6.748;2022-08-19T10:18:13;101217.25;;;25.98;54.55
20983;BME280;10650;51.528;6.748;2022-08-19T10:20:44;101215.31;;;26.00;54.36
20983;BME280;10650;51.528;6.748;2022-08-19T10:23:18;101214.72;;;26.10;54.14
20983;BME280;10650;51.528;6.748;2022-08-19T10:25:47;101202.25;;;26.18;54.24
20983;BME280;10650;51.528;6.748;2022-08-19T10:28:15;101202.88;;;26.36;53.76
20983;BME280;10650;51.528;6.748;2022-08-19T10:30:45;101198.72;;;26.44;53.20
20983;BME280;10650;51.528;6.748;2022-08-19T10:33:14;101194.25;;;26.55;52.86
20983;BME280;10650;51.528;6.748;2022-08-19T10:36:06;101194.41;;;26.67;53.02
20983;BME280;10650;51.528;6.748;2022-08-19T10:38:34;101205.06;;;26.71;52.21
20983;BME280;10650;51.528;6.748;2022-08-19T10:41:10;101196.63;;;26.74;52.24
20983;BME280;10650;51.528;6.748;2022-08-19T10:43:39;101202.91;;;26.62;51.62
20983;BME280;10650;51.528;6.748;2022-08-19T10:46:09;101188.63;;;26.71;52.01
20983;BME280;10650;51.528;6.748;2022-08-19T10:48:43;101183.78;;;26.75;51.50
20983;BME280;10650;51.528;6.748;2022-08-19T10:51:12;101186.75;;;26.85;51.06
20983;BME280;10650;51.528;6.748;2022-08-19T10:54:00;101176.88;;;26.82;51.07
20983;BME280;10650;51.528;6.748;2022-08-19T10:56:33;101185.13;;;26.69;51.10
20983;BME280;10650;51.528;6.748;2022-08-19T10:59:20;101185.94;;;26.57;51.00
20983;BME280;10650;51.528;6.748;2022-08-19T11:01:52;101182.28;;;26.71;51.53
20983;BME280;10650;51.528;6.748;2022-08-19T11:04:22;101180.63;;;26.81;51.01
20983;BME280;10650;51.528;6.748;2022-08-19T11:06:56;101177.22;;;26.90;50.84
20983;BME280;10650;51.528;6.748;2022-08-19T11:09:25;101188.19;;;26.90;50.96
20983;BME280;10650;51.528;6.748;2022-08-19T11:11:59;101182.69;;;26.77;50.25
20983;BME280;10650;51.528;6.748;2022-08-19T11:14:30;101176.63;;;26.59;50.01
20983;BME280;10650;51.528;6.748;2022-08-19T11:17:00;101175.41;;;26.51;49.44
20983;BME280;10650;51.528;6.748;2022-08-19T11:19:28;101179.38;;;26.59;49.96
20983;BME280;10650;51.528;6.748;2022-08-19T11:21:58;101188.50;;;26.73;49.58
20983;BME280;10650;51.528;6.748;2022-08-19T11:24:29;101184.81;;;26.87;49.07
20983;BME280;10650;51.528;6.748;2022-08-19T11:27:02;101181.38;;;26.96;48.25
20983;BME280;10650;51.528;6.748;2022-08-19T11:29:31;101183.91;;;27.12;48.46
20983;BME280;10650;51.528;6.748;2022-08-19T11:32:03;101174.56;;;27.27;47.59
20983;BME280;10650;51.528;6.748;2022-08-19T11:34:31;101170.84;;;27.28;46.72
20983;BME280;10650;51.528;6.748;2022-08-19T11:37:02;101170.63;;;27.44;47.36
20983;BME280;10650;51.528;6.748;2022-08-19T11:39:30;101166.56;;;27.50;47.04
20983;BME280;10650;51.528;6.748;2022-08-19T11:42:00;101167.75;;;27.59;45.34
20983;BME280;10650;51.528;6.748;2022-08-19T11:44:28;101156.69;;;27.48;45.78
20983;BME280;10650;51.528;6.748;2022-08-19T11:46:57;101161.72;;;27.54;46.84
20983;BME280;10650;51.528;6.748;2022-08-19T11:49:34;101170.31;;;27.10;45.18
20983;BME280;10650;51.528;6.748;2022-08-19T11:52:04;101170.28;;;27.23;47.03
20983;BME280;10650;51.528;6.748;2022-08-19T11:54:32;101166.47;;;27.39;46.44
20983;BME280;10650;51.528;6.748;2022-08-19T11:57:01;101162.06;;;27.49;45.99
20983;BME280;10650;51.528;6.748;2022-08-19T11:59:29;101154.56;;;27.64;45.94
20983;BME280;10650;51.528;6.748;2022-08-19T12:01:57;101155.63;;;27.74;44.97
20983;BME280;10650;51.528;6.748;2022-08-19T12:04:25;101159.91;;;27.78;44.10
20983;BME280;10650;51.528;6.748;2022-08-19T12:06:53;101159.00;;;27.78;44.09
20983;BME280;10650;51.528;6.748;2022-08-19T12:09:22;101158.66;;;27.58;44.68
20983;BME280;10650;51.528;6.748;2022-08-19T12:11:50;101156.53;;;27.62;45.36
20983;BME280;10650;51.528;6.748;2022-08-19T12:14:18;101155.66;;;27.61;45.08
20983;BME280;10650;51.528;6.748;2022-08-19T12:16:46;101160.34;;;27.72;44.90
20983;BME280;10650;51.528;6.748;2022-08-19T12:19:18;101143.66;;;27.75;44.83
20983;BME280;10650;51.528;6.748;2022-08-19T12:21:48;101146.69;;;27.84;44.97
20983;BME280;10650;51.528;6.748;2022-08-19T12:24:17;101139.97;;;27.88;43.83
20983;BME280;10650;51.528;6.748;2022-08-19T12:26:50;101143.44;;;27.78;42.98
20983;BME280;10650;51.528;6.748;2022-08-19T12:29:20;101142.66;;;27.76;42.94
20983;BME280;10650;51.528;6.748;2022-08-19T12:31:55;101138.69;;;27.80;42.71
20983;BME280;10650;51.528;6.748;2022-08-19T12:34:27;101143.06;;;27.83;42.51
20983;BME280;10650;51.528;6.748;2022-08-19T12:36:57;101140.41;;;27.94;42.94
20983;BME280;10650;51.528;6.748;2022-08-19T12:39:25;101133.47;;;28.02;42.50
20983;BME280;10650;51.528;6.748;2022-08-19T12:41:54;101128.84;;;28.02;42.35
20983;BME280;10650;51.528;6.748;2022-08-19T12:44:22;101133.88;;;28.08;41.59
20983;BME280;10650;51.528;6.748;2022-08-19T12:46:55;101132.25;;;28.06;41.27
20983;BME280;10650;51.528;6.748;2022-08-19T12:49:23;101141.75;;;28.13;42.04
20983;BME280;10650;51.528;6.748;2022-08-19T12:52:11;101135.03;;;28.17;41.94
20983;BME280;10650;51.528;6.748;2022-08-19T12:54:42;101122.72;;;28.23;42.19
20983;BME280;10650;51.528;6.748;2022-08-19T12:57:11;101139.19;;;28.23;42.08
20983;BME280;10650;51.528;6.748;2022-08-19T12:59:40;101131.50;;;27.91;41.66
20983;BME280;10650;51.528;6.748;2022-08-19T13:02:08;101131.75;;;27.88;41.58
20983;BME280;10650;51.528;6.748;2022-08-19T13:04:35;101126.72;;;27.82;41.49
20983;BME280;10650;51.528;6.748;2022-08-19T13:07:07;101122.94;;;27.71;40.89
20983;BME280;10650;51.528;6.748;2022-08-19T13:09:35;101126.00;;;27.67;42.24
20983;BME280;10650;51.528;6.748;2022-08-19T13:12:04;101125.19;;;27.53;40.54